Saturday, December 16, 2017, 9:11 PM EST
Back to Local

KUKT, Quakertown, Quakertown Airport

Location: Quakertown, PA, United States Lat: 40.435
Local Time: 9:11 PM EST ( 2:11 GMT) Lon: -75.382
Time Zone: US/Eastern Elev: 524 ft

Show me the last for .
Show Decoded

2017-12-16 20:55 METAR KUKT 170155Z AUTO 00000KT 10SM OVC039 03/M04 A3014 RMK AO1 =
2017-12-16 20:35 METAR KUKT 170135Z AUTO 00000KT 10SM OVC041 03/M04 A3014 RMK AO1 =
2017-12-16 20:15 METAR KUKT 170115Z AUTO 00000KT 10SM OVC045 03/M04 A3014 RMK AO1 =
2017-12-16 19:55 METAR KUKT 170055Z AUTO 26003KT 10SM OVC047 03/M04 A3013 RMK AO1 =
2017-12-16 19:35 METAR KUKT 170035Z AUTO 00000KT 10SM OVC049 03/M04 A3012 RMK AO1 =
2017-12-16 19:15 METAR KUKT 170015Z AUTO 26003KT 10SM OVC049 03/M04 A3011 RMK AO1 =
2017-12-16 18:55 METAR KUKT 162355Z AUTO 29003KT 10SM BKN049 OVC060 03/M04 A3010 RMK AO1 =
2017-12-16 18:35 METAR KUKT 162335Z AUTO 25003KT 10SM OVC060 03/M04 A3009 RMK AO1 =
2017-12-16 18:15 METAR KUKT 162315Z AUTO 24004KT 10SM OVC060 03/M04 A3008 RMK AO1 =
2017-12-16 17:55 METAR KUKT 162255Z AUTO 23003KT 10SM BKN049 OVC060 03/M04 A3007 RMK AO1 =
2017-12-16 17:35 METAR KUKT 162235Z AUTO 23005KT 10SM OVC049 03/M04 A3006 RMK AO1 =
2017-12-16 17:15 METAR KUKT 162215Z AUTO 23005KT 10SM OVC049 03/M04 A3005 RMK AO1 =
2017-12-16 16:55 METAR KUKT 162155Z AUTO 23004KT 10SM OVC049 03/M04 A3004 RMK AO1 =
2017-12-16 16:35 METAR KUKT 162135Z AUTO 23003KT 10SM OVC049 03/M04 A3003 RMK AO1 =
2017-12-16 16:15 METAR KUKT 162115Z AUTO 23004KT 10SM OVC049 03/M04 A3002 RMK AO1 =
2017-12-16 15:55 METAR KUKT 162055Z AUTO 23004KT 10SM OVC049 03/M04 A3002 RMK AO1 =
2017-12-16 15:35 METAR KUKT 162035Z AUTO 22005KT 10SM OVC049 03/M04 A3001 RMK AO1 =
2017-12-16 15:15 METAR KUKT 162015Z AUTO 22005KT 10SM OVC049 03/M04 A3001 RMK AO1 =
2017-12-16 14:55 METAR KUKT 161955Z AUTO 22006KT 10SM OVC049 03/M04 A3000 RMK AO1 =
2017-12-16 14:35 METAR KUKT 161935Z AUTO 22006KT 10SM OVC049 03/M04 A3000 RMK AO1 =
2017-12-16 14:15 METAR KUKT 161915Z AUTO 23007KT 10SM BKN041 OVC049 02/M05 A3000 RMK AO1 =
2017-12-16 13:55 METAR KUKT 161855Z AUTO 22007KT 10SM OVC039 02/M05 A3000 RMK AO1 =
2017-12-16 13:35 METAR KUKT 161835Z AUTO 22009KT 10SM OVC039 03/M05 A3000 RMK AO1 =
2017-12-16 13:15 METAR KUKT 161815Z AUTO 22009KT 10SM BKN041 03/M05 A3000 RMK AO1 =
2017-12-16 12:55 METAR KUKT 161755Z AUTO 22009G14KT 10SM FEW043 03/M05 A3000 RMK AO1 =
2017-12-16 12:35 METAR KUKT 161735Z AUTO 22010KT 10SM SCT060 BKN070 02/M05 A3000 RMK AO1 =
2017-12-16 12:15 METAR KUKT 161715Z AUTO 23012G18KT 10SM BKN045 OVC060 02/M06 A3001 RMK AO1 =
2017-12-16 11:55 METAR KUKT 161655Z AUTO 22010G16KT 10SM SCT043 BKN070 02/M06 A3001 RMK AO1 =
2017-12-16 11:35 METAR KUKT 161635Z AUTO 23009KT 10SM SCT055 BKN070 01/M07 A3002 RMK AO1 =
2017-12-16 11:15 METAR KUKT 161615Z AUTO 22008KT 10SM SCT041 OVC049 00/M07 A3003 RMK AO1 =
2017-12-16 10:55 METAR KUKT 161555Z AUTO 22008G16KT 10SM OVC045 00/M07 A3005 RMK AO1 =
2017-12-16 10:35 METAR KUKT 161535Z AUTO 22008KT 10SM BKN041 OVC048 00/M07 A3006 RMK AO1 =
2017-12-16 10:15 METAR KUKT 161515Z AUTO 23005KT 10SM OVC041 M02/M07 A3006 RMK AO1 =
2017-12-16 09:55 METAR KUKT 161455Z AUTO 22005KT 10SM BKN039 OVC045 M02/M07 A3006 RMK AO1 =
2017-12-16 09:35 METAR KUKT 161435Z AUTO 22007KT 10SM OVC041 M03/M08 A3006 RMK AO1 =
2017-12-16 09:15 METAR KUKT 161415Z AUTO 23006KT 10SM BKN043 OVC065 M03/M08 A3007 RMK AO1 =
2017-12-16 08:55 METAR KUKT 161355Z AUTO 23003KT 10SM SCT043 OVC065 M04/M08 A3006 RMK AO1 =
2017-12-16 08:35 METAR KUKT 161335Z AUTO 22004KT 10SM SCT042 BKN065 M04/M09 A3006 RMK AO1 =
2017-12-16 08:15 METAR KUKT 161315Z AUTO 22004KT 10SM BKN042 M05/M09 A3005 RMK AO1 =
2017-12-16 07:55 METAR KUKT 161255Z AUTO 21003KT 10SM FEW042 M06/M09 A3004 RMK AO1 =
2017-12-16 07:35 METAR KUKT 161235Z AUTO 21003KT 10SM FEW047 BKN060 M06/M09 A3004 RMK AO1 =
2017-12-16 07:15 METAR KUKT 161215Z AUTO 22004KT 10SM FEW047 BKN060 M05/M09 A3003 RMK AO1 =
2017-12-16 06:55 METAR KUKT 161155Z AUTO 23004KT 10SM CLR M06/M09 A3002 RMK AO1 =
2017-12-16 06:35 METAR KUKT 161135Z AUTO 23004KT 10SM CLR M07/M09 A3002 RMK AO1 =
2017-12-16 06:15 METAR KUKT 161115Z AUTO 22004KT 10SM CLR M07/M09 A3001 RMK AO1 =
2017-12-16 05:55 METAR KUKT 161055Z AUTO 21005KT 10SM CLR M07/M09 A3000 RMK AO1 =
2017-12-16 05:35 METAR KUKT 161035Z AUTO 22003KT 10SM CLR M07/M09 A3000 RMK AO1 =
2017-12-16 05:15 METAR KUKT 161015Z AUTO 23004KT 10SM CLR M07/M09 A2999 RMK AO1 =
2017-12-16 04:55 METAR KUKT 160955Z AUTO 23004KT 10SM CLR M06/M09 A2998 RMK AO1 =
2017-12-16 04:35 METAR KUKT 160935Z AUTO 22005KT 10SM CLR M06/M09 A2998 RMK AO1 =
2017-12-16 04:15 METAR KUKT 160915Z AUTO 22006KT 10SM CLR M05/M09 A2998 RMK AO1 =
2017-12-16 03:55 METAR KUKT 160855Z AUTO 23006KT 10SM CLR M06/M08 A2998 RMK AO1 =
2017-12-16 03:35 METAR KUKT 160835Z AUTO 22005KT 10SM CLR M06/M08 A2998 RMK AO1 =
2017-12-16 03:15 METAR KUKT 160815Z AUTO 21004KT 10SM CLR M07/M09 A2998 RMK AO1 =
2017-12-16 02:55 METAR KUKT 160755Z AUTO 22004KT 10SM CLR M08/M09 A2997 RMK AO1 =
2017-12-16 02:35 METAR KUKT 160735Z AUTO 23003KT 10SM CLR M08/M09 A2997 RMK AO1 =
2017-12-16 02:15 METAR KUKT 160715Z AUTO 00000KT 10SM CLR M07/M08 A2996 RMK AO1 =
2017-12-16 01:55 METAR KUKT 160655Z AUTO 24003KT 10SM CLR M07/M08 A2996 RMK AO1 =
2017-12-16 01:35 METAR KUKT 160635Z AUTO 25003KT 10SM CLR M07/M08 A2995 RMK AO1 =
2017-12-16 01:15 METAR KUKT 160615Z AUTO 24003KT 10SM CLR M07/M08 A2995 RMK AO1 =
2017-12-16 00:55 METAR KUKT 160555Z AUTO 25004KT 8SM CLR M08/M08 A2994 RMK AO1 =
2017-12-16 00:35 METAR KUKT 160535Z AUTO 27003KT 5SM CLR M09/M10 A2993 RMK AO1 =
2017-12-16 00:15 METAR KUKT 160515Z AUTO 00000KT 5SM CLR M10/M12 A2993 RMK AO1 =
2017-12-15 23:55 METAR KUKT 160455Z AUTO 00000KT 5SM CLR M10/M11 A2993 RMK AO1 =
2017-12-15 23:35 METAR KUKT 160435Z AUTO 00000KT 5SM CLR M10/M11 A2993 RMK AO1 =
2017-12-15 23:15 METAR KUKT 160415Z AUTO 00000KT 3SM CLR M09/M10 A2993 RMK AO1 =
2017-12-15 22:55 METAR KUKT 160355Z AUTO 00000KT 5SM CLR M08/M09 A2992 RMK AO1 =
2017-12-15 22:35 METAR KUKT 160335Z AUTO 00000KT 7SM CLR M08/M08 A2993 RMK AO1 =
2017-12-15 22:15 METAR KUKT 160315Z AUTO 22003KT 8SM SCT060 M07/M08 A2993 RMK AO1 =
2017-12-15 21:55 METAR KUKT 160255Z AUTO 23003KT 10SM OVC070 M07/M08 A2993 RMK AO1 =
2017-12-15 21:35 METAR KUKT 160235Z AUTO 00000KT 9SM OVC070 M08/M08 A2993 RMK AO1 =
2017-12-15 21:15 METAR KUKT 160215Z AUTO 00000KT 7SM FEW013 OVC070 M08/M08 A2993 RMK AO1 =

Support USWX by starting your Amazon purchase here.